createdAt,value
2022-11-19T00:00:45.674Z,-2.66
2022-11-19T00:05:49.670Z,-2.78
2022-11-19T00:10:51.302Z,-2.83
2022-11-19T00:15:52.985Z,-2.73
2022-11-19T00:20:56.436Z,-2.77
2022-11-19T00:26:06.077Z,-2.84
2022-11-19T00:31:12.306Z,-2.91
2022-11-19T00:36:15.196Z,-2.97
2022-11-19T00:41:16.898Z,-2.95
2022-11-19T00:46:22.896Z,-2.97
2022-11-19T00:51:29.617Z,-2.99
2022-11-19T00:56:31.303Z,-3.25
2022-11-19T01:01:33.464Z,-3.29
2022-11-19T01:06:35.114Z,-3.26
2022-11-19T01:11:38.046Z,-3.25
2022-11-19T01:16:41.238Z,-3.25
2022-11-19T01:21:42.892Z,-3.30
2022-11-19T01:26:46.138Z,-3.45
2022-11-19T01:31:47.978Z,-3.42
2022-11-19T01:36:49.648Z,-3.37
2022-11-19T01:41:51.318Z,-3.46
2022-11-19T01:46:52.917Z,-3.45
2022-11-19T01:52:01.206Z,-3.40
2022-11-19T01:57:04.844Z,-3.53
2022-11-19T02:02:06.543Z,-3.45
2022-11-19T02:07:10.017Z,-3.61
2022-11-19T02:12:17.640Z,-3.68
2022-11-19T02:17:31.154Z,-3.61
2022-11-19T02:22:57.123Z,-3.48
2022-11-19T02:28:05.038Z,-3.47
2022-11-19T02:33:10.781Z,-3.42
2022-11-19T02:38:18.554Z,-3.40
2022-11-19T02:43:36.335Z,-3.44
2022-11-19T02:48:40.342Z,-3.47
2022-11-19T02:53:42.003Z,-3.69
2022-11-19T02:59:06.281Z,-3.93
2022-11-19T03:04:27.627Z,-4.01
2022-11-19T03:09:31.248Z,-4.16
2022-11-19T03:15:00.482Z,-4.24
2022-11-19T03:20:16.404Z,-4.26
2022-11-19T03:25:34.172Z,-4.36
2022-11-19T03:30:36.496Z,-4.11
2022-11-19T03:35:45.318Z,-3.98
2022-11-19T03:40:47.965Z,-3.96
2022-11-19T03:45:51.598Z,-3.98
2022-11-19T03:51:08.918Z,-4.02
2022-11-19T03:56:13.033Z,-4.11
2022-11-19T04:01:14.950Z,-4.03
2022-11-19T04:06:16.551Z,-4.16
2022-11-19T04:16:21.461Z,-4.49
2022-11-19T04:21:23.133Z,-4.49
2022-11-19T04:26:24.743Z,-4.63
2022-11-19T04:31:26.449Z,-4.78
2022-11-19T04:36:28.055Z,-4.83
2022-11-19T04:41:29.742Z,-4.95
2022-11-19T04:46:31.587Z,-4.97
2022-11-19T04:51:33.299Z,-4.94
2022-11-19T04:56:36.383Z,-5.02
2022-11-19T05:01:38.125Z,-5.04
2022-11-19T05:06:39.905Z,-5.00
2022-11-19T05:11:41.582Z,-5.10
2022-11-19T05:16:43.229Z,-5.10
2022-11-19T05:21:44.859Z,-5.13
2022-11-19T05:26:46.564Z,-5.13
2022-11-19T05:31:50.407Z,-5.11
2022-11-19T05:36:52.048Z,-5.10
2022-11-19T05:41:53.683Z,-5.09
2022-11-19T05:46:56.786Z,-5.12
2022-11-19T05:51:58.419Z,-5.17
2022-11-19T05:57:00.330Z,-5.27
2022-11-19T06:02:01.995Z,-5.22
2022-11-19T06:07:03.948Z,-5.28
2022-11-19T06:12:05.848Z,-5.21
2022-11-19T06:17:07.657Z,-5.19
2022-11-19T06:22:09.770Z,-5.22
2022-11-19T06:27:11.475Z,-5.30
2022-11-19T06:32:13.147Z,-5.27
2022-11-19T06:37:14.849Z,-5.15
2022-11-19T06:42:35.093Z,-5.08
2022-11-19T06:47:37.190Z,-5.15
2022-11-19T06:52:38.848Z,-5.02
2022-11-19T06:57:40.719Z,-5.10
2022-11-19T07:02:42.417Z,-5.01
2022-11-19T07:07:44.138Z,-4.90
2022-11-19T07:12:45.861Z,-4.89
2022-11-19T07:17:47.732Z,-4.86
2022-11-19T07:22:49.384Z,-4.34
2022-11-19T07:27:51.060Z,-4.28
2022-11-19T07:32:53.446Z,-4.46
2022-11-19T07:37:55.075Z,-4.45
2022-11-19T07:42:56.761Z,-4.44
2022-11-19T07:47:58.466Z,-4.45
2022-11-19T07:53:00.419Z,-4.42
2022-11-19T07:58:02.098Z,-4.37
2022-11-19T08:03:03.831Z,-4.37
2022-11-19T08:08:05.766Z,-4.24
2022-11-19T08:13:07.439Z,-4.11
2022-11-19T08:18:13.946Z,-4.01
2022-11-19T08:23:15.817Z,-3.91
2022-11-19T08:28:17.476Z,-3.82
2022-11-19T08:33:19.449Z,-3.76
2022-11-19T08:38:21.076Z,-3.69
2022-11-19T08:43:22.731Z,-3.64
2022-11-19T08:48:24.394Z,-3.60
2022-11-19T08:53:26.149Z,-3.52
2022-11-19T08:58:27.808Z,-3.44
2022-11-19T09:03:29.442Z,-3.31
2022-11-19T09:08:31.763Z,-3.23
2022-11-19T09:13:33.714Z,-3.15
2022-11-19T09:18:39.031Z,-3.09
2022-11-19T09:23:42.519Z,-2.99
2022-11-19T09:28:44.796Z,-2.91
2022-11-19T09:33:49.700Z,-2.84
2022-11-19T09:38:56.457Z,-2.78
2022-11-19T09:44:17.422Z,-2.67
2022-11-19T09:49:31.470Z,-2.56
2022-11-19T09:54:33.358Z,-2.47
2022-11-19T09:59:41.709Z,-2.38
2022-11-19T10:04:43.815Z,-2.28
2022-11-19T10:09:56.994Z,-2.17
2022-11-19T10:15:24.791Z,-2.10
2022-11-19T10:20:39.814Z,-1.97
2022-11-19T10:25:47.284Z,-1.85
2022-11-19T10:30:55.415Z,-1.77
2022-11-19T10:36:00.984Z,-1.65
2022-11-19T10:41:09.745Z,-1.51
2022-11-19T10:46:17.566Z,-1.37
2022-11-19T10:51:27.568Z,-1.18
2022-11-19T10:56:41.054Z,-1.04
2022-11-19T11:01:44.772Z,-0.94
2022-11-19T11:06:55.167Z,-0.81
2022-11-19T11:12:17.498Z,-0.67
2022-11-19T11:17:28.471Z,-0.59
2022-11-19T11:22:30.508Z,-0.60
2022-11-19T11:27:34.776Z,-0.53
2022-11-19T11:32:36.491Z,-0.47
2022-11-19T11:37:38.276Z,-0.41
2022-11-19T11:42:40.000Z,-0.40
2022-11-19T11:47:41.814Z,-0.37
2022-11-19T11:52:48.338Z,-0.34
2022-11-19T11:57:58.407Z,-0.25
2022-11-19T12:03:18.856Z,-0.28
2022-11-19T12:08:25.622Z,-0.32
2022-11-19T12:14:08.025Z,-0.29
2022-11-19T12:19:20.045Z,-0.36
2022-11-19T12:24:28.016Z,-0.37
2022-11-19T12:30:06.149Z,-0.36
2022-11-19T12:35:15.258Z,-0.35
2022-11-19T12:40:46.330Z,-0.30
2022-11-19T12:45:58.929Z,-0.33
2022-11-19T12:51:22.497Z,-0.28
2022-11-19T12:56:28.736Z,-0.18
2022-11-19T13:01:34.300Z,-0.21
2022-11-19T13:06:45.054Z,-0.26
2022-11-19T13:11:52.131Z,-0.27
2022-11-19T13:16:54.686Z,-0.24
2022-11-19T13:22:04.543Z,-0.35
2022-11-19T13:27:11.330Z,-0.43
2022-11-19T13:32:25.508Z,-0.48
2022-11-19T13:37:57.999Z,-0.42
2022-11-19T13:43:35.203Z,-0.43
2022-11-19T13:48:41.384Z,-0.41
2022-11-19T13:53:44.810Z,-0.40
2022-11-19T13:58:53.194Z,-0.42
2022-11-19T14:04:03.707Z,-0.40
2022-11-19T14:09:28.060Z,-0.30
2022-11-19T14:15:04.700Z,-0.29
2022-11-19T14:20:52.687Z,-0.29
2022-11-19T14:26:12.982Z,-0.26
2022-11-19T14:31:18.853Z,-0.20
2022-11-19T14:36:39.394Z,-0.25
2022-11-19T14:41:44.180Z,-0.36
2022-11-19T14:46:48.740Z,-0.46
2022-11-19T14:51:53.289Z,-0.60
2022-11-19T14:57:08.000Z,-0.76
2022-11-19T15:02:50.292Z,-0.88
2022-11-19T15:08:17.978Z,-1.04
2022-11-19T15:13:20.718Z,-1.15
2022-11-19T15:18:37.523Z,-1.30
2022-11-19T15:24:14.321Z,-1.36
2022-11-19T15:29:19.191Z,-1.54
2022-11-19T15:34:23.640Z,-1.63
2022-11-19T15:39:32.449Z,-1.67
2022-11-19T15:44:37.289Z,-1.74
2022-11-19T15:49:40.159Z,-1.84
2022-11-19T15:54:41.972Z,-1.97
2022-11-19T15:59:45.872Z,-2.00
2022-11-19T16:04:49.114Z,-2.09
2022-11-19T16:09:51.006Z,-2.20
2022-11-19T16:15:12.352Z,-2.29
2022-11-19T16:20:13.981Z,-2.26
2022-11-19T16:25:49.343Z,-2.29
2022-11-19T16:30:59.469Z,-2.30
2022-11-19T16:36:32.052Z,-2.35
2022-11-19T16:41:52.179Z,-2.43
2022-11-19T16:46:53.905Z,-2.37
2022-11-19T16:51:55.793Z,-2.40
2022-11-19T16:56:57.580Z,-2.50
2022-11-19T17:01:59.912Z,-2.59
2022-11-19T17:07:01.880Z,-2.61
2022-11-19T17:12:24.098Z,-2.44
2022-11-19T17:17:39.466Z,-2.40
2022-11-19T17:22:42.108Z,-2.61
2022-11-19T17:27:43.968Z,-2.57
2022-11-19T17:32:47.220Z,-2.62
2022-11-19T17:37:49.968Z,-2.70
2022-11-19T17:43:10.179Z,-2.52
2022-11-19T17:48:19.816Z,-2.64
2022-11-19T17:53:22.938Z,-2.83
2022-11-19T17:58:24.608Z,-2.97
2022-11-19T18:03:26.325Z,-3.04
2022-11-19T18:08:28.664Z,-3.03
2022-11-19T18:13:31.819Z,-3.03
2022-11-19T18:18:33.457Z,-2.96
2022-11-19T18:23:35.367Z,-3.00
2022-11-19T18:28:37.144Z,-2.98
2022-11-19T18:33:39.943Z,-2.94
2022-11-19T18:38:42.195Z,-3.09
2022-11-19T18:44:02.617Z,-3.07
2022-11-19T18:49:04.446Z,-3.08
2022-11-19T18:54:06.117Z,-3.05
2022-11-19T18:59:07.769Z,-3.13
2022-11-19T19:04:14.284Z,-3.17
2022-11-19T19:09:20.468Z,-3.23
2022-11-19T19:14:22.872Z,-3.28
2022-11-19T19:19:24.550Z,-3.28
2022-11-19T19:24:26.880Z,-3.35
2022-11-19T19:29:28.879Z,-3.45
2022-11-19T19:34:30.667Z,-3.44
2022-11-19T19:39:32.374Z,-3.50
2022-11-19T19:44:34.124Z,-3.42
2022-11-19T19:49:38.857Z,-3.43
2022-11-19T19:54:42.023Z,-3.50
2022-11-19T19:59:43.871Z,-3.49
2022-11-19T20:04:45.521Z,-3.43
2022-11-19T20:09:47.204Z,-3.44
2022-11-19T20:14:49.042Z,-3.52
2022-11-19T20:19:50.712Z,-3.55
2022-11-19T20:24:52.610Z,-3.55
2022-11-19T20:29:54.265Z,-3.51
2022-11-19T20:34:56.546Z,-3.60
2022-11-19T20:39:58.320Z,-3.56
2022-11-19T20:44:59.945Z,-3.66
2022-11-19T20:50:01.669Z,-3.63
2022-11-19T20:55:06.780Z,-3.79
2022-11-19T21:00:09.318Z,-3.91
2022-11-19T21:05:11.010Z,-4.00
2022-11-19T21:10:12.711Z,-4.12
2022-11-19T21:15:14.722Z,-3.92
2022-11-19T21:20:17.221Z,-3.89
2022-11-19T21:25:19.410Z,-3.98
2022-11-19T21:30:21.190Z,-4.10
2022-11-19T21:35:23.060Z,-4.03
2022-11-19T21:40:24.739Z,-4.03
2022-11-19T21:45:26.406Z,-4.13
2022-11-19T21:50:28.015Z,-4.09
2022-11-19T21:55:29.666Z,-4.05
2022-11-19T22:00:32.246Z,-4.08
2022-11-19T22:05:34.380Z,-4.07
2022-11-19T22:10:36.972Z,-4.15
2022-11-19T22:15:41.032Z,-4.18
2022-11-19T22:20:43.483Z,-4.26
2022-11-19T22:25:45.170Z,-4.32
2022-11-19T22:30:53.931Z,-4.27
2022-11-19T22:36:00.398Z,-4.30
2022-11-19T22:41:10.247Z,-4.47
2022-11-19T22:46:12.860Z,-4.59
2022-11-19T22:51:20.365Z,-4.57
2022-11-19T22:56:25.090Z,-4.56
2022-11-19T23:01:29.358Z,-4.66
2022-11-19T23:06:31.009Z,-4.63
2022-11-19T23:11:52.176Z,-4.58
2022-11-19T23:16:53.984Z,-4.62
2022-11-19T23:21:55.631Z,-4.69
2022-11-19T23:26:57.660Z,-4.72
2022-11-19T23:31:59.375Z,-4.82
2022-11-19T23:37:01.008Z,-4.86
2022-11-19T23:42:02.554Z,-4.88
2022-11-19T23:47:06.664Z,-5.00
2022-11-19T23:52:08.368Z,-5.06
2022-11-19T23:57:10.027Z,-4.96
